Time;durP1;ratioP1;P1;durP2;ratioP2;P2;SDS_P1;SDS_P2;PMS_P1;PMS_P2;Temp;Humidity;BMP_temperature;BMP_pressure;BME280_temperature;BME280_humidity;BME280_pressure;Samples;Min_cycle;Max_cycle;Signal;HPM_P1;HPM_P2
2022/05/12 00:00:50;;;;;;;0.90;0.70;;;11.40;99.90;;;;;;5026626;28;20053;-77
2022/05/12 00:03:17;;;;;;;0.90;0.70;;;11.30;99.90;;;;;;5026414;28;20089;-77
2022/05/12 00:05:43;;;;;;;3.95;0.80;;;11.30;99.90;;;;;;5027366;28;20431;-76
2022/05/12 00:08:09;;;;;;;0.45;0.45;;;11.30;99.90;;;;;;5027303;28;20605;-77
2022/05/12 00:10:36;;;;;;;1.23;1.13;;;11.30;99.90;;;;;;5027295;28;20046;-77
2022/05/12 00:13:02;;;;;;;3.53;0.85;;;11.20;99.90;;;;;;5027425;28;20045;-77
2022/05/12 00:15:31;;;;;;;1.55;0.73;;;11.20;99.90;;;;;;5027971;28;20052;-77
2022/05/12 00:17:57;;;;;;;0.70;0.70;;;11.20;99.90;;;;;;5026719;28;20377;-77
2022/05/12 00:20:24;;;;;;;5.10;0.65;;;11.20;99.90;;;;;;5027421;28;20053;-77
2022/05/12 00:22:49;;;;;;;1.02;0.88;;;11.20;99.90;;;;;;5027406;28;20381;-77
2022/05/12 00:25:19;;;;;;;2.50;0.88;;;11.20;99.90;;;;;;5008432;28;20042;-77
2022/05/12 00:27:44;;;;;;;0.50;0.50;;;11.10;99.90;;;;;;5042630;28;20049;-77
2022/05/12 00:30:11;;;;;;;3.13;0.63;;;11.10;99.90;;;;;;5042513;28;20037;-77
2022/05/12 00:32:39;;;;;;;0.57;0.57;;;11.10;99.90;;;;;;5025969;28;20067;-77
2022/05/12 00:35:07;;;;;;;1.50;1.02;;;11.10;99.90;;;;;;5009530;28;20045;-77
2022/05/12 00:37:33;;;;;;;6.78;1.42;;;11.00;99.90;;;;;;5009110;28;20045;-77
2022/05/12 00:39:58;;;;;;;0.40;0.40;;;11.00;99.90;;;;;;5027061;28;20407;-77
2022/05/12 00:42:24;;;;;;;1.55;1.02;;;11.00;99.90;;;;;;5042330;28;20575;-77
2022/05/12 00:44:49;;;;;;;0.70;0.70;;;11.00;99.90;;;;;;5026719;28;20547;-77
2022/05/12 00:47:15;;;;;;;1.60;1.50;;;11.00;99.90;;;;;;5011067;28;20566;-77
2022/05/12 00:49:42;;;;;;;1.02;1.02;;;11.00;99.90;;;;;;5007084;28;20551;-77
2022/05/12 00:52:10;;;;;;;0.35;0.35;;;11.00;99.90;;;;;;5006964;28;20076;-77
2022/05/12 00:54:54;;;;;;;1.77;1.27;;;10.90;99.90;;;;;;5010649;28;20041;-77
2022/05/12 00:57:34;;;;;;;1.00;1.00;;;10.90;99.90;;;;;;5026700;28;20576;-77
2022/05/12 01:00:01;;;;;;;1.40;1.15;;;10.90;99.90;;;;;;5026725;28;20561;-77
2022/05/12 01:02:28;;;;;;;1.48;1.38;;;10.90;99.90;;;;;;5026462;28;20052;-77
2022/05/12 01:04:57;;;;;;;1.25;0.88;;;10.90;99.90;;;;;;5026295;28;20049;-77
2022/05/12 01:07:23;;;;;;;1.10;1.00;;;10.90;99.90;;;;;;5025929;28;20132;-77
2022/05/12 01:09:49;;;;;;;1.27;1.13;;;10.80;99.90;;;;;;5042739;22;20152;-78
2022/05/12 01:12:16;;;;;;;5.50;1.27;;;10.80;99.90;;;;;;5026295;28;20055;-78
2022/05/12 01:14:41;;;;;;;1.20;0.95;;;10.80;99.90;;;;;;5026526;28;20045;-78
2022/05/12 01:17:08;;;;;;;5.50;1.77;;;10.80;99.90;;;;;;5025787;28;20662;-78
2022/05/12 01:19:39;;;;;;;2.72;1.42;;;10.80;99.90;;;;;;5026210;28;20049;-78
2022/05/12 01:22:08;;;;;;;2.78;1.80;;;10.80;99.90;;;;;;5026045;28;20087;-78
2022/05/12 01:24:39;;;;;;;3.10;2.15;;;10.70;99.90;;;;;;5026072;28;20045;-78
2022/05/12 01:27:19;;;;;;;14.05;1.27;;;10.70;99.90;;;;;;5026465;28;20120;-78
2022/05/12 01:29:53;;;;;;;1.77;1.15;;;10.70;99.90;;;;;;5026413;28;20045;-78
2022/05/12 01:32:21;;;;;;;2.42;1.90;;;10.60;99.90;;;;;;5024676;28;20033;-78
2022/05/12 01:34:47;;;;;;;2.55;1.17;;;10.60;99.90;;;;;;5040872;28;20081;-78
2022/05/12 01:37:13;;;;;;;2.78;2.45;;;10.60;99.90;;;;;;5007461;28;20073;-78
2022/05/12 01:39:39;;;;;;;1.60;1.30;;;10.60;99.90;;;;;;5025919;28;20132;-78
2022/05/12 01:42:07;;;;;;;2.03;1.52;;;10.60;99.90;;;;;;5025026;28;20088;-78
2022/05/12 01:44:33;;;;;;;1.92;1.10;;;10.60;99.90;;;;;;5025610;28;20088;-78
2022/05/12 01:46:59;;;;;;;9.70;1.83;;;10.60;99.90;;;;;;5024774;28;20120;-78
2022/05/12 01:49:25;;;;;;;5.20;1.60;;;10.60;99.90;;;;;;5007494;28;20464;-78
2022/05/12 01:51:55;;;;;;;0.85;0.85;;;10.60;99.90;;;;;;5040860;28;20046;-78
2022/05/12 01:54:22;;;;;;;3.95;2.28;;;10.50;99.90;;;;;;5025321;28;20049;-78
2022/05/12 01:56:48;;;;;;;2.72;1.70;;;10.50;99.90;;;;;;5040960;28;20100;-78
2022/05/12 01:59:13;;;;;;;3.90;1.60;;;10.50;99.90;;;;;;5024966;28;20072;-78
2022/05/12 02:01:39;;;;;;;1.05;1.05;;;10.50;99.90;;;;;;5039810;28;20077;-78
2022/05/12 02:04:05;;;;;;;4.43;1.73;;;10.50;99.90;;;;;;5024277;28;20041;-78
2022/05/12 02:06:32;;;;;;;3.67;1.52;;;10.50;99.90;;;;;;5025822;28;20088;-78
2022/05/12 02:08:57;;;;;;;1.75;1.65;;;10.50;99.90;;;;;;5025342;28;20106;-78
2022/05/12 02:11:24;;;;;;;1.83;1.63;;;10.50;99.90;;;;;;5007154;28;20124;-78
2022/05/12 02:13:49;;;;;;;3.92;1.45;;;10.40;99.90;;;;;;5025173;28;20444;-78
2022/05/12 02:16:15;;;;;;;1.25;1.05;;;10.40;99.90;;;;;;5023870;28;20128;-78
2022/05/12 02:18:40;;;;;;;2.92;2.22;;;10.40;99.90;;;;;;5007586;28;20551;-78
2022/05/12 02:21:06;;;;;;;0.98;0.98;;;10.40;99.90;;;;;;5024876;28;20057;-78
2022/05/12 02:23:32;;;;;;;1.95;1.48;;;10.40;99.90;;;;;;5007301;28;20045;-78
2022/05/12 02:25:57;;;;;;;1.73;1.33;;;10.40;99.90;;;;;;5007280;28;20042;-78
2022/05/12 02:28:23;;;;;;;1.65;1.25;;;10.40;99.90;;;;;;5007172;28;20103;-77
2022/05/12 02:30:49;;;;;;;1.63;1.52;;;10.40;99.90;;;;;;5023927;28;20043;-78
2022/05/12 02:33:14;;;;;;;3.40;1.83;;;10.40;99.90;;;;;;5024694;28;20171;-78
2022/05/12 02:35:40;;;;;;;2.85;2.35;;;10.40;99.90;;;;;;5007332;28;20041;-78
2022/05/12 02:38:07;;;;;;;3.22;1.45;;;10.40;99.90;;;;;;5007273;28;20053;-78
2022/05/12 02:40:33;;;;;;;1.70;1.60;;;10.40;99.90;;;;;;5025301;28;20416;-78
2022/05/12 02:42:58;;;;;;;3.00;2.05;;;10.40;99.90;;;;;;5025310;28;20052;-78
2022/05/12 02:45:26;;;;;;;2.40;2.20;;;10.40;99.90;;;;;;5025076;28;20033;-78
2022/05/12 02:47:52;;;;;;;2.58;1.73;;;10.30;99.90;;;;;;5025429;28;20046;-78
2022/05/12 02:50:18;;;;;;;3.28;2.65;;;10.30;99.90;;;;;;5031272;28;20041;-78
2022/05/12 02:52:44;;;;;;;3.90;2.38;;;10.40;99.90;;;;;;5031861;28;20041;-78
2022/05/12 02:55:10;;;;;;;4.78;2.35;;;10.30;99.90;;;;;;5031150;28;20407;-78
2022/05/12 02:57:35;;;;;;;2.17;1.65;;;10.30;99.90;;;;;;5013954;28;20042;-78
2022/05/12 03:00:04;;;;;;;3.72;3.13;;;10.30;99.90;;;;;;5030996;28;20041;-78
2022/05/12 03:02:30;;;;;;;2.95;1.67;;;10.30;99.90;;;;;;5012890;28;20046;-78
2022/05/12 03:04:56;;;;;;;5.32;1.80;;;10.30;99.90;;;;;;5032185;28;20052;-78
2022/05/12 03:07:21;;;;;;;2.20;2.00;;;10.20;99.90;;;;;;5031183;28;20057;-78
2022/05/12 03:09:47;;;;;;;8.07;1.73;;;10.20;99.90;;;;;;5013671;28;20690;-78
2022/05/12 03:12:12;;;;;;;6.82;2.47;;;10.30;99.90;;;;;;5031003;28;20054;-78
2022/05/12 03:14:38;;;;;;;2.15;1.73;;;10.20;99.90;;;;;;5013740;28;20526;-78
2022/05/12 03:17:03;;;;;;;3.10;1.88;;;10.20;99.90;;;;;;4996010;28;20048;-78
2022/05/12 03:19:31;;;;;;;2.47;1.98;;;10.20;99.90;;;;;;5031927;28;20453;-78
2022/05/12 03:21:56;;;;;;;3.63;2.10;;;10.20;99.90;;;;;;4997736;28;20038;-78
2022/05/12 03:24:22;;;;;;;2.42;1.88;;;10.20;99.90;;;;;;5031167;28;20053;-78
2022/05/12 03:26:48;;;;;;;3.13;2.33;;;10.20;99.90;;;;;;5013443;28;20125;-78
2022/05/12 03:29:14;;;;;;;9.23;2.35;;;10.20;99.90;;;;;;5030484;28;20041;-78
2022/05/12 03:31:40;;;;;;;2.20;2.03;;;10.20;99.90;;;;;;5012663;28;20116;-78
2022/05/12 03:34:06;;;;;;;3.60;2.28;;;10.20;99.90;;;;;;5031144;28;20175;-78
2022/05/12 03:36:35;;;;;;;4.88;2.40;;;10.20;99.90;;;;;;5046769;28;20472;-78
2022/05/12 03:39:04;;;;;;;2.95;2.58;;;10.20;99.90;;;;;;5046387;28;20041;-78
2022/05/12 03:41:31;;;;;;;2.50;2.05;;;10.20;99.90;;;;;;5031841;28;20041;-78
2022/05/12 03:46:41;;;;;;;2.53;1.98;;;10.20;99.90;;;;;;5020135;28;20053;-78
2022/05/12 03:49:07;;;;;;;3.58;2.22;;;10.20;99.90;;;;;;5026544;28;20053;-78
2022/05/12 03:51:33;;;;;;;1.77;1.67;;;10.20;99.90;;;;;;5011110;28;20091;-78
2022/05/12 03:53:59;;;;;;;1.75;1.65;;;10.20;99.90;;;;;;5011921;28;20049;-78
2022/05/12 03:56:26;;;;;;;2.90;2.28;;;10.20;99.90;;;;;;5010978;28;20065;-78
2022/05/12 03:58:51;;;;;;;4.32;2.30;;;10.20;99.90;;;;;;5013104;28;20049;-78
2022/05/12 04:01:17;;;;;;;4.43;2.50;;;10.20;99.90;;;;;;5025641;28;20438;-78
2022/05/12 04:03:45;;;;;;;6.32;2.03;;;10.20;99.90;;;;;;5027671;28;20541;-78
2022/05/12 04:06:11;;;;;;;5.28;3.13;;;10.10;99.90;;;;;;5009996;28;20045;-79
2022/05/12 04:08:37;;;;;;;10.00;3.28;;;10.20;99.90;;;;;;5027384;28;20215;-78
2022/05/12 04:11:03;;;;;;;2.33;2.10;;;10.10;99.90;;;;;;5027430;28;20591;-78
2022/05/12 04:13:29;;;;;;;2.28;2.17;;;10.10;99.90;;;;;;5027488;28;20484;-78
2022/05/12 04:15:55;;;;;;;3.72;2.50;;;10.10;99.90;;;;;;5026744;28;20045;-78
2022/05/12 04:18:20;;;;;;;3.05;2.25;;;10.20;99.90;;;;;;5027533;28;20056;-78
2022/05/12 04:20:46;;;;;;;2.97;1.85;;;10.20;99.90;;;;;;5027270;28;20043;-78
2022/05/12 04:23:11;;;;;;;11.68;2.30;;;10.20;99.90;;;;;;5027104;28;20064;-78
2022/05/12 04:25:37;;;;;;;2.20;2.03;;;10.20;99.90;;;;;;5027251;28;20099;-78
2022/05/12 04:28:04;;;;;;;2.97;2.45;;;10.20;99.90;;;;;;5026847;28;20487;-78
2022/05/12 04:30:30;;;;;;;2.97;1.90;;;10.20;99.90;;;;;;5026513;28;20045;-78
2022/05/12 04:35:09;;;;;;;2.20;2.00;;;10.10;99.90;;;;;;5009343;28;20041;-78
2022/05/12 04:35:41;;;;;;;6.35;2.40;;;10.20;99.90;;;;;;5042408;28;20124;-78
2022/05/12 04:38:06;;;;;;;4.15;2.53;;;10.20;99.90;;;;;;5026822;28;20121;-79
2022/05/12 04:40:32;;;;;;;8.93;2.30;;;10.20;99.90;;;;;;5026225;28;20160;-79
2022/05/12 04:42:59;;;;;;;3.22;2.90;;;10.20;99.90;;;;;;5027038;28;20127;-78
2022/05/12 04:45:27;;;;;;;14.93;2.70;;;10.20;99.90;;;;;;5007918;28;20050;-79
2022/05/12 04:47:53;;;;;;;7.80;2.65;;;10.20;99.90;;;;;;5007229;28;20088;-78
2022/05/12 04:50:23;;;;;;;4.25;1.80;;;10.20;99.90;;;;;;5011898;28;20033;-77
2022/05/12 04:52:49;;;;;;;2.78;2.45;;;10.20;99.90;;;;;;5009054;28;20128;-77
2022/05/12 04:55:15;;;;;;;2.25;2.15;;;10.30;99.90;;;;;;5026778;28;20476;-77
2022/05/12 04:57:43;;;;;;;3.08;2.10;;;10.30;99.90;;;;;;5041585;28;20041;-77
2022/05/12 05:00:14;;;;;;;2.72;2.53;;;10.30;99.90;;;;;;5007391;28;20045;-76
2022/05/12 05:02:41;;;;;;;3.95;2.03;;;10.30;99.90;;;;;;5025890;28;20487;-80
2022/05/12 05:05:07;;;;;;;1.33;1.30;;;10.40;99.90;;;;;;5022866;28;20046;-84
2022/05/12 05:07:33;;;;;;;4.63;1.65;;;10.40;99.90;;;;;;5025260;28;20120;-80
2022/05/12 05:09:59;;;;;;;4.10;2.13;;;10.40;99.90;;;;;;5008981;28;20153;-82
2022/05/12 05:12:25;;;;;;;2.67;1.83;;;10.40;99.90;;;;;;5008157;28;20075;-78
2022/05/12 05:14:51;;;;;;;2.72;2.03;;;10.40;99.90;;;;;;5026545;28;20045;-78
2022/05/12 05:17:16;;;;;;;3.72;2.47;;;10.50;99.90;;;;;;5024107;28;20634;-79
2022/05/12 05:19:42;;;;;;;6.75;2.75;;;10.50;99.90;;;;;;5024635;28;20053;-79
2022/05/12 05:22:08;;;;;;;2.15;2.03;;;10.60;99.90;;;;;;5024324;28;20075;-79
2022/05/12 05:24:34;;;;;;;4.75;2.00;;;10.50;99.90;;;;;;5023590;28;20049;-79
2022/05/12 05:27:00;;;;;;;3.28;2.30;;;10.60;99.90;;;;;;5007786;28;20037;-79
2022/05/12 05:29:26;;;;;;;6.63;2.50;;;10.60;99.90;;;;;;5025574;28;20092;-79
2022/05/12 05:31:51;;;;;;;2.28;1.92;;;10.60;99.90;;;;;;5023870;28;20045;-79
2022/05/12 05:34:17;;;;;;;3.30;2.10;;;10.70;99.90;;;;;;5025509;28;20044;-79
2022/05/12 05:36:44;;;;;;;4.25;2.08;;;10.80;99.90;;;;;;4990475;28;20060;-79
2022/05/12 05:39:24;;;;;;;2.20;2.10;;;10.80;99.90;;;;;;5024746;28;20034;-79
2022/05/12 05:41:53;;;;;;;4.35;1.30;;;10.80;99.90;;;;;;5007477;28;20535;-79
2022/05/12 05:44:19;;;;;;;2.47;2.08;;;10.90;99.90;;;;;;5007102;28;20458;-79
2022/05/12 05:46:45;;;;;;;7.65;2.30;;;10.90;99.90;;;;;;5013222;28;20038;-79
2022/05/12 05:49:10;;;;;;;1.67;1.58;;;10.90;99.90;;;;;;4986922;28;20084;-79
2022/05/12 05:54:20;;;;;;;9.63;2.42;;;10.90;99.90;;;;;;5024379;28;20053;-79
2022/05/12 05:56:47;;;;;;;1.45;1.27;;;11.00;99.90;;;;;;5002006;28;20496;-79
2022/05/12 05:59:13;;;;;;;2.10;1.90;;;11.10;99.90;;;;;;5023204;28;20044;-79
2022/05/12 06:01:38;;;;;;;2.03;1.73;;;11.10;99.90;;;;;;5023684;28;20034;-79
2022/05/12 06:04:05;;;;;;;1.95;1.50;;;11.20;99.90;;;;;;5024833;28;20491;-80
2022/05/12 06:06:30;;;;;;;5.85;1.83;;;11.20;99.90;;;;;;5024085;28;20091;-82
2022/05/12 06:08:56;;;;;;;1.45;1.35;;;11.20;99.90;;;;;;5025359;28;20037;-83
2022/05/12 06:11:21;;;;;;;2.88;2.28;;;11.30;99.90;;;;;;4990640;28;20503;-80
2022/05/12 06:13:47;;;;;;;2.38;1.65;;;11.40;99.90;;;;;;5024067;28;20096;-80
2022/05/12 06:16:14;;;;;;;4.63;2.25;;;11.40;99.90;;;;;;5005404;28;20607;-81
2022/05/12 06:18:41;;;;;;;5.97;2.42;;;11.50;99.90;;;;;;5007724;28;20391;-80
2022/05/12 06:21:09;;;;;;;4.55;2.35;;;11.50;99.90;;;;;;5024441;28;20048;-80
2022/05/12 06:23:35;;;;;;;1.80;1.17;;;11.60;99.90;;;;;;5023686;28;20064;-80
2022/05/12 06:26:01;;;;;;;3.75;1.90;;;11.60;99.90;;;;;;5024263;28;20037;-80
2022/05/12 06:28:28;;;;;;;1.83;1.40;;;11.60;99.90;;;;;;5025158;28;20041;-80
2022/05/12 06:30:54;;;;;;;1.48;1.38;;;11.70;99.90;;;;;;5023787;28;20037;-80
2022/05/12 06:33:19;;;;;;;2.92;1.83;;;11.70;99.90;;;;;;5024037;28;20257;-80
2022/05/12 06:35:47;;;;;;;3.05;1.83;;;11.70;99.90;;;;;;5024630;28;20041;-80
2022/05/12 06:38:13;;;;;;;6.07;2.05;;;11.70;99.90;;;;;;5013918;28;20045;-80
2022/05/12 06:40:39;;;;;;;7.22;1.88;;;11.80;99.90;;;;;;5006830;28;20443;-80
2022/05/12 06:43:05;;;;;;;2.72;1.52;;;11.80;99.90;;;;;;5023996;28;20091;-81
2022/05/12 06:45:31;;;;;;;7.15;3.30;;;11.80;99.90;;;;;;5021896;28;20049;-80
2022/05/12 06:47:56;;;;;;;9.75;1.95;;;11.80;99.90;;;;;;5024223;28;20041;-80
2022/05/12 06:50:28;;;;;;;4.00;1.92;;;11.90;99.90;;;;;;5006520;28;20076;-80
2022/05/12 06:52:54;;;;;;;2.27;1.57;;;11.90;99.90;;;;;;5006355;28;20056;-80
2022/05/12 06:55:21;;;;;;;4.47;1.42;;;11.90;99.90;;;;;;5024059;28;20326;-81
2022/05/12 06:57:47;;;;;;;16.23;2.00;;;11.90;99.90;;;;;;5021921;28;20033;-80
2022/05/12 07:00:16;;;;;;;6.80;1.52;;;12.00;99.90;;;;;;5005521;28;20133;-80
2022/05/12 07:02:44;;;;;;;13.43;2.40;;;12.00;99.90;;;;;;5024107;28;20048;-81
2022/05/12 07:05:09;;;;;;;8.02;2.00;;;12.10;99.90;;;;;;5006098;28;20038;-80
2022/05/12 07:07:35;;;;;;;9.93;2.38;;;12.10;99.90;;;;;;5024164;28;20116;-80
2022/05/12 07:10:02;;;;;;;2.22;1.05;;;12.10;99.90;;;;;;5019458;28;20162;-81
2022/05/12 07:12:28;;;;;;;2.58;2.08;;;12.10;99.90;;;;;;5005182;28;20519;-80
2022/05/12 07:14:55;;;;;;;5.13;2.38;;;12.10;99.90;;;;;;5004171;28;20038;-80
2022/05/12 07:17:22;;;;;;;4.15;1.45;;;12.20;99.90;;;;;;5004660;28;20057;-81
2022/05/12 07:19:49;;;;;;;1.90;1.20;;;12.20;99.90;;;;;;5003716;28;20046;-83
2022/05/12 07:27:43;;;;;;;1.45;0.95;;;12.30;99.90;;;;;;5002902;28;20153;-80
2022/05/12 07:30:10;;;;;;;3.35;1.42;;;12.30;99.90;;;;;;4998536;28;20524;-87
2022/05/12 07:32:37;;;;;;;4.40;1.05;;;12.30;99.90;;;;;;4997155;28;20046;-84
2022/05/12 07:35:05;;;;;;;7.78;2.38;;;12.40;99.90;;;;;;5018219;28;20065;-84
2022/05/12 07:37:31;;;;;;;1.17;1.05;;;12.30;99.90;;;;;;4988492;28;20034;-82
2022/05/12 07:39:56;;;;;;;5.63;2.00;;;12.40;99.90;;;;;;4988603;28;20069;-85
2022/05/12 07:42:22;;;;;;;15.55;2.13;;;12.40;99.90;;;;;;4988273;28;20042;-85
2022/05/12 07:44:47;;;;;;;5.75;1.98;;;12.40;99.90;;;;;;4987347;28;20583;-85
2022/05/12 07:47:13;;;;;;;7.90;1.63;;;12.40;99.90;;;;;;5002170;28;20217;-85
2022/05/12 07:49:40;;;;;;;1.05;0.90;;;12.50;99.90;;;;;;5007658;28;20049;-84
2022/05/12 07:52:08;;;;;;;3.25;0.93;;;12.50;99.90;;;;;;5007077;28;20037;-85
2022/05/12 07:54:35;;;;;;;2.40;1.50;;;12.50;99.90;;;;;;5007806;28;20042;-85
2022/05/12 07:57:01;;;;;;;0.73;0.73;;;12.50;99.90;;;;;;5006371;28;20125;-85
2022/05/12 07:59:27;;;;;;;2.47;1.38;;;12.60;99.90;;;;;;5000786;28;20030;-84
2022/05/12 08:01:54;;;;;;;2.63;1.00;;;12.60;99.90;;;;;;5005410;28;20045;-85
2022/05/12 08:04:19;;;;;;;6.60;0.82;;;12.70;99.90;;;;;;5004528;28;20420;-85
2022/05/12 08:06:45;;;;;;;8.30;1.52;;;12.70;99.90;;;;;;5015765;28;20072;-84
2022/05/12 08:09:11;;;;;;;5.40;1.92;;;12.70;99.90;;;;;;5008321;28;20060;-88
2022/05/12 08:11:37;;;;;;;8.02;1.17;;;12.80;99.90;;;;;;5025838;28;20172;-85
2022/05/12 08:14:02;;;;;;;4.30;2.67;;;12.80;99.90;;;;;;5024032;28;20132;-85
2022/05/12 08:16:28;;;;;;;5.57;3.20;;;12.80;99.90;;;;;;5026109;28;20040;-85
2022/05/12 08:18:53;;;;;;;3.13;1.35;;;12.80;99.90;;;;;;5008903;28;20524;-85
2022/05/12 08:21:23;;;;;;;2.10;1.13;;;12.80;99.90;;;;;;5026208;28;20143;-86
2022/05/12 08:23:50;;;;;;;1.15;0.90;;;12.90;99.90;;;;;;5025143;28;20565;-85
2022/05/12 08:26:16;;;;;;;0.82;0.70;;;12.90;99.90;;;;;;5007786;28;20052;-86
2022/05/12 08:28:42;;;;;;;1.70;1.48;;;12.90;99.90;;;;;;5025360;28;20045;-85
2022/05/12 08:31:08;;;;;;;5.82;1.20;;;13.00;99.90;;;;;;5004404;28;20144;-85
2022/05/12 08:33:34;;;;;;;3.78;1.23;;;13.00;99.90;;;;;;5008136;28;20369;-85
2022/05/12 08:36:00;;;;;;;5.43;1.45;;;13.00;99.90;;;;;;5025386;28;20040;-85
2022/05/12 08:38:26;;;;;;;5.82;1.63;;;13.00;99.90;;;;;;5025462;28;20049;-85
2022/05/12 08:41:03;;;;;;;2.35;1.75;;;13.10;99.90;;;;;;5024101;28;20447;-85
2022/05/12 08:43:40;;;;;;;2.28;1.77;;;13.10;99.90;;;;;;5006647;28;20053;-85
2022/05/12 08:46:10;;;;;;;2.75;1.15;;;13.10;99.90;;;;;;5005717;28;20168;-84
2022/05/12 08:48:42;;;;;;;2.90;1.42;;;13.10;99.90;;;;;;5023251;28;20086;-85
2022/05/12 08:51:11;;;;;;;8.73;1.38;;;13.20;99.90;;;;;;5024662;28;20025;-85
2022/05/12 08:53:54;;;;;;;2.72;1.38;;;13.20;99.90;;;;;;5026652;28;20095;-86
2022/05/12 08:56:22;;;;;;;3.55;1.60;;;13.20;99.90;;;;;;5008393;28;20076;-86
2022/05/12 08:58:50;;;;;;;1.75;1.52;;;13.30;99.90;;;;;;5008311;28;20037;-86
2022/05/12 09:01:50;;;;;;;1.25;1.08;;;13.30;99.90;;;;;;5025005;28;20131;-85
2022/05/12 09:04:42;;;;;;;8.25;1.45;;;13.40;99.90;;;;;;5025697;28;20558;-85
2022/05/12 09:07:10;;;;;;;0.82;0.82;;;13.40;99.90;;;;;;5006365;28;20081;-85
2022/05/12 09:10:05;;;;;;;5.60;1.00;;;13.40;99.90;;;;;;4998898;28;20053;-85
2022/05/12 09:12:52;;;;;;;3.80;1.55;;;13.50;99.90;;;;;;5004478;28;20071;-85
2022/05/12 09:15:26;;;;;;;2.63;1.58;;;13.50;99.90;;;;;;5023524;28;20107;-85
2022/05/12 09:17:57;;;;;;;3.85;0.98;;;13.40;99.90;;;;;;5025984;28;20041;-85
2022/05/12 09:20:25;;;;;;;1.02;1.00;;;13.50;99.90;;;;;;5007666;28;20550;-85
2022/05/12 09:22:51;;;;;;;0.57;0.55;;;13.50;99.90;;;;;;5007664;28;20524;-85
2022/05/12 09:25:42;;;;;;;3.53;1.45;;;13.60;99.90;;;;;;5025736;28;20052;-83
2022/05/12 09:28:34;;;;;;;4.18;0.70;;;13.60;99.90;;;;;;5025178;28;20487;-85
2022/05/12 09:31:17;;;;;;;0.82;0.80;;;13.70;99.90;;;;;;5005376;28;20053;-85
2022/05/12 09:33:45;;;;;;;1.23;0.77;;;13.70;99.90;;;;;;5025789;28;20041;-87
2022/05/12 09:36:29;;;;;;;0.93;0.85;;;13.70;99.90;;;;;;5020635;28;20041;-86
2022/05/12 09:38:55;;;;;;;1.83;0.75;;;13.70;99.90;;;;;;5025513;28;20048;-86
2022/05/12 09:41:31;;;;;;;5.05;1.67;;;13.70;99.90;;;;;;5025264;28;20554;-87
2022/05/12 09:43:57;;;;;;;1.08;0.95;;;13.70;99.90;;;;;;5041365;28;20049;-86
2022/05/12 09:46:31;;;;;;;0.70;0.68;;;13.70;99.90;;;;;;5034736;28;20053;-86
2022/05/12 09:49:19;;;;;;;1.48;1.02;;;13.70;99.90;;;;;;5041031;28;20056;-86
2022/05/12 09:51:44;;;;;;;0.68;0.65;;;13.70;99.90;;;;;;5010600;28;20045;-86
2022/05/12 09:54:23;;;;;;;0.77;0.77;;;13.70;99.90;;;;;;5025098;28;20099;-86
2022/05/12 09:57:04;;;;;;;5.78;1.63;;;13.70;99.90;;;;;;5007414;28;20037;-86
2022/05/12 09:59:32;;;;;;;0.85;0.85;;;13.70;99.90;;;;;;5006846;28;20049;-86
2022/05/12 10:02:04;;;;;;;0.82;0.77;;;13.80;99.90;;;;;;5025999;28;20132;-88
2022/05/12 10:10:21;;;;;;;1.42;1.33;;;14.00;99.90;;;;;;5019434;28;20199;-88
2022/05/12 10:13:20;;;;;;;1.65;0.77;;;14.00;99.90;;;;;;5016523;28;20212;-80
2022/05/12 10:15:48;;;;;;;1.23;0.70;;;14.00;99.90;;;;;;5005024;28;20053;-80
2022/05/12 10:18:32;;;;;;;0.60;0.60;;;14.10;99.90;;;;;;5024719;28;20041;-81
2022/05/12 10:21:15;;;;;;;3.33;1.27;;;14.10;99.90;;;;;;5007854;28;20049;-86
2022/05/12 10:24:02;;;;;;;1.23;0.93;;;14.20;99.90;;;;;;5007308;28;20041;-88
2022/05/12 10:26:57;;;;;;;1.08;0.98;;;14.20;99.90;;;;;;5024676;28;20445;-93
2022/05/12 10:29:41;;;;;;;3.30;1.15;;;14.20;99.90;;;;;;5002955;28;20053;-94
2022/05/12 10:33:01;;;;;;;2.92;0.68;;;14.30;99.90;;;;;;5023765;28;20038;-93
2022/05/12 10:35:47;;;;;;;1.90;1.27;;;14.30;99.90;;;;;;4948167;28;20051;-93
2022/05/12 10:38:26;;;;;;;2.13;0.80;;;14.40;99.90;;;;;;5003885;28;20056;-94
2022/05/12 10:40:59;;;;;;;1.02;0.68;;;14.40;99.90;;;;;;5007084;28;20136;-94
2022/05/12 10:43:42;;;;;;;3.88;0.98;;;14.50;99.90;;;;;;5024632;28;20527;-93
2022/05/12 10:46:20;;;;;;;0.55;0.55;;;14.50;99.90;;;;;;5018097;28;20034;-92
2022/05/12 10:48:52;;;;;;;4.22;0.93;;;14.50;99.90;;;;;;4987575;28;20054;-93
2022/05/12 10:51:52;;;;;;;0.73;0.70;;;14.50;99.90;;;;;;5004936;28;20042;-94
2022/05/12 10:54:29;;;;;;;3.33;0.68;;;14.50;99.90;;;;;;4987654;28;20049;-93
2022/05/12 10:57:21;;;;;;;2.17;0.95;;;14.60;99.90;;;;;;5020509;28;20807;-93
2022/05/12 10:59:52;;;;;;;0.82;0.82;;;14.60;99.90;;;;;;4986983;28;20045;-93
2022/05/12 11:02:33;;;;;;;0.40;0.40;;;14.70;99.90;;;;;;5004494;28;20050;-92
2022/05/12 11:05:19;;;;;;;3.20;0.73;;;14.70;99.90;;;;;;5005495;28;20054;-93
2022/05/12 11:07:50;;;;;;;0.80;0.80;;;14.70;99.90;;;;;;5004784;28;20045;-92
2022/05/12 11:10:39;;;;;;;0.88;0.80;;;14.70;99.90;;;;;;5007268;28;20061;-92
2022/05/12 11:13:41;;;;;;;1.65;0.90;;;14.70;99.90;;;;;;5008688;28;20054;-93
2022/05/12 11:16:41;;;;;;;2.97;0.93;;;14.70;99.90;;;;;;5001168;28;20515;-93
2022/05/12 11:19:23;;;;;;;2.97;0.57;;;14.70;99.90;;;;;;4983754;28;20665;-94
2022/05/12 11:22:14;;;;;;;0.50;0.50;;;14.70;99.90;;;;;;4991289;28;20408;-93
2022/05/12 11:24:56;;;;;;;0.77;0.57;;;14.70;99.90;;;;;;5008718;28;20038;-93
2022/05/12 11:27:29;;;;;;;1.67;0.80;;;14.70;99.90;;;;;;5008612;28;20049;-94
2022/05/12 11:30:16;;;;;;;0.95;0.65;;;14.70;99.90;;;;;;4990664;28;20056;-93
2022/05/12 11:33:02;;;;;;;6.15;0.90;;;14.70;99.90;;;;;;4991287;28;20046;-93
2022/05/12 11:35:40;;;;;;;2.13;0.90;;;14.70;99.90;;;;;;5008496;28;20491;-93
2022/05/12 11:38:10;;;;;;;1.50;0.80;;;14.80;99.90;;;;;;5008223;28;20496;-93
2022/05/12 11:40:40;;;;;;;0.90;0.68;;;14.80;99.90;;;;;;5008124;28;20042;-92
2022/05/12 11:46:41;;;;;;;5.47;0.75;;;15.00;99.90;;;;;;5014105;28;20049;-94
2022/05/12 11:49:15;;;;;;;1.80;1.00;;;15.00;99.90;;;;;;5010512;28;20062;-93
2022/05/12 11:52:15;;;;;;;1.08;0.80;;;15.10;99.90;;;;;;5009912;28;20055;-94
2022/05/12 11:54:59;;;;;;;4.78;0.68;;;15.00;99.90;;;;;;5010194;28;20041;-92
2022/05/12 11:57:32;;;;;;;2.28;1.02;;;15.00;99.90;;;;;;5027718;28;20037;-93
2022/05/12 12:00:00;;;;;;;4.10;1.65;;;15.10;99.90;;;;;;5009675;28;20778;-92
2022/05/12 12:02:29;;;;;;;0.57;0.57;;;15.10;99.90;;;;;;5010349;28;20512;-93
2022/05/12 12:05:04;;;;;;;0.95;0.57;;;15.20;99.90;;;;;;5028280;28;20076;-93
2022/05/12 12:07:30;;;;;;;0.88;0.88;;;15.20;99.90;;;;;;5028201;28;20198;-93
2022/05/12 12:09:58;;;;;;;3.70;1.20;;;15.20;99.90;;;;;;5010419;28;20057;-93
2022/05/12 12:12:48;;;;;;;0.70;0.70;;;15.30;99.90;;;;;;4993677;28;20901;-93
2022/05/12 12:15:28;;;;;;;1.13;0.98;;;15.40;99.90;;;;;;5026586;28;20049;-93
2022/05/12 12:17:54;;;;;;;2.20;0.45;;;15.40;99.90;;;;;;5009733;28;20545;-94
2022/05/12 12:20:32;;;;;;;1.55;1.00;;;15.50;99.90;;;;;;5008907;28;20075;-94
2022/05/12 12:23:24;;;;;;;5.13;1.10;;;15.50;99.90;;;;;;5027942;28;20056;-94
2022/05/12 12:26:05;;;;;;;0.40;0.40;;;15.50;99.90;;;;;;5002553;28;20057;-93
2022/05/12 12:29:05;;;;;;;0.80;0.80;;;15.50;99.90;;;;;;5043030;28;20049;-93
2022/05/12 12:31:44;;;;;;;5.53;1.42;;;15.50;99.90;;;;;;4997055;28;20055;-93
2022/05/12 12:34:41;;;;;;;0.80;0.80;;;15.50;99.90;;;;;;5027633;28;20107;-94
2022/05/12 12:37:09;;;;;;;2.15;0.60;;;15.50;99.90;;;;;;5042640;28;20045;-95
2022/05/12 12:39:45;;;;;;;0.80;0.80;;;15.50;99.90;;;;;;5009203;28;20045;-90
2022/05/12 12:42:45;;;;;;;1.95;1.13;;;15.50;99.90;;;;;;5025746;28;20124;-83
2022/05/12 12:45:18;;;;;;;1.67;0.63;;;15.50;99.90;;;;;;5007853;28;20071;-89
2022/05/12 12:47:59;;;;;;;0.47;0.47;;;15.50;99.90;;;;;;5026566;28;20131;-89
2022/05/12 12:50:35;;;;;;;0.60;0.60;;;15.60;99.90;;;;;;5026159;28;20052;-89
2022/05/12 12:53:01;;;;;;;5.63;0.60;;;15.50;99.90;;;;;;5008456;28;20053;-88
2022/05/12 12:58:28;;;;;;;0.43;0.38;;;15.50;99.90;;;;;;5026008;28;20510;-89
2022/05/12 13:01:09;;;;;;;4.60;0.47;;;15.50;99.90;;;;;;4991587;28;20132;-88
2022/05/12 13:03:36;;;;;;;0.80;0.80;;;15.50;99.90;;;;;;4988990;28;20057;-87
2022/05/12 13:06:12;;;;;;;0.60;0.60;;;15.50;99.90;;;;;;5008127;28;20045;-88
2022/05/12 13:08:38;;;;;;;5.63;0.85;;;15.50;99.90;;;;;;5026502;28;20037;-86
2022/05/12 13:11:05;;;;;;;0.55;0.55;;;15.50;99.90;;;;;;5025039;28;20053;-86
2022/05/12 13:13:31;;;;;;;8.48;1.25;;;15.50;99.90;;;;;;5041633;28;20085;-86
2022/05/12 13:16:00;;;;;;;2.25;0.60;;;15.60;99.90;;;;;;5025521;28;20403;-86
2022/05/12 13:18:32;;;;;;;9.35;0.68;;;15.60;99.90;;;;;;5026504;28;20059;-86
2022/05/12 13:21:00;;;;;;;1.52;0.60;;;15.60;99.90;;;;;;5041235;28;20083;-86
2022/05/12 13:23:27;;;;;;;2.88;0.80;;;15.60;99.90;;;;;;5041356;28;20140;-85
2022/05/12 13:25:55;;;;;;;1.33;0.80;;;15.60;99.90;;;;;;5025448;28;20079;-85